createdAt,value
2018-06-03T00:00:13.419Z,6.00
2018-06-03T00:00:44.588Z,5.50
2018-06-03T00:01:15.807Z,6.33
2018-06-03T00:01:46.987Z,7.33
2018-06-03T00:02:18.168Z,7.67
2018-06-03T00:02:49.329Z,8.35
2018-06-03T00:03:20.537Z,7.80
2018-06-03T00:03:51.705Z,5.33
2018-06-03T00:04:22.869Z,6.87
2018-06-03T00:04:54.033Z,5.40
2018-06-03T00:05:25.213Z,5.75
2018-06-03T00:05:56.388Z,7.08
2018-06-03T00:06:27.553Z,5.53
2018-06-03T00:06:58.726Z,6.47
2018-06-03T00:07:29.949Z,6.25
2018-06-03T00:08:01.121Z,6.25
2018-06-03T00:08:32.321Z,9.63
2018-06-03T00:09:03.482Z,5.22
2018-06-03T00:09:35.258Z,6.00
2018-06-03T00:10:08.425Z,7.40
2018-06-03T00:10:39.613Z,7.40
2018-06-03T00:11:10.842Z,8.00
2018-06-03T00:11:42.019Z,7.28
2018-06-03T00:12:13.234Z,6.70
2018-06-03T00:12:44.405Z,4.17
2018-06-03T00:13:15.582Z,5.35
2018-06-03T00:13:46.845Z,5.58
2018-06-03T00:14:18.079Z,6.05
2018-06-03T00:14:49.313Z,6.78
2018-06-03T00:15:20.561Z,8.13
2018-06-03T00:15:51.744Z,5.55
2018-06-03T00:16:22.908Z,7.35
2018-06-03T00:16:54.178Z,12.53
2018-06-03T00:17:25.451Z,6.45
2018-06-03T00:17:56.680Z,5.83
2018-06-03T00:18:27.862Z,4.58
2018-06-03T00:18:59.037Z,5.15
2018-06-03T00:19:30.197Z,5.53
2018-06-03T00:20:01.421Z,6.30
2018-06-03T00:20:32.593Z,5.58
2018-06-03T00:21:03.762Z,3.75
2018-06-03T00:21:34.926Z,6.65
2018-06-03T00:22:06.157Z,6.85
2018-06-03T00:22:37.390Z,5.42
2018-06-03T00:23:08.625Z,7.45
2018-06-03T00:23:39.812Z,5.60
2018-06-03T00:24:11.038Z,7.33
2018-06-03T00:24:42.274Z,8.15
2018-06-03T00:25:13.498Z,6.60
2018-06-03T00:25:44.662Z,10.38
2018-06-03T00:26:15.932Z,5.12
2018-06-03T00:26:47.165Z,6.60
2018-06-03T00:27:18.389Z,5.40
2018-06-03T00:27:49.564Z,4.28
2018-06-03T00:28:20.741Z,6.03
2018-06-03T00:28:51.917Z,7.92
2018-06-03T00:29:23.139Z,6.53
2018-06-03T00:29:54.317Z,6.65
2018-06-03T00:30:25.543Z,6.10
2018-06-03T00:30:56.708Z,5.25
2018-06-03T00:31:27.889Z,7.53
2018-06-03T00:31:59.073Z,4.47
2018-06-03T00:32:30.249Z,11.22
2018-06-03T00:33:01.425Z,6.62
2018-06-03T00:33:32.599Z,5.33
2018-06-03T00:34:03.776Z,5.58
2018-06-03T00:34:34.994Z,5.28
2018-06-03T00:35:06.230Z,6.03
2018-06-03T00:35:37.412Z,6.25
2018-06-03T00:36:08.587Z,5.60
2018-06-03T00:36:39.754Z,8.75
2018-06-03T00:37:10.986Z,4.95
2018-06-03T00:37:42.220Z,6.97
2018-06-03T00:38:13.396Z,10.35
2018-06-03T00:38:44.553Z,6.90
2018-06-03T00:39:15.781Z,5.85
2018-06-03T00:39:46.955Z,5.42
2018-06-03T00:40:18.147Z,6.70
2018-06-03T00:40:49.313Z,4.87
2018-06-03T00:41:20.485Z,5.17
2018-06-03T00:41:51.658Z,6.35
2018-06-03T00:42:22.833Z,6.37
2018-06-03T00:42:54.006Z,3.77
2018-06-03T00:43:25.233Z,7.75
2018-06-03T00:43:56.412Z,6.45
2018-06-03T00:44:27.584Z,5.85
2018-06-03T00:44:58.749Z,6.95
2018-06-03T00:45:29.928Z,6.12
2018-06-03T00:46:01.103Z,7.62
2018-06-03T00:46:32.268Z,6.15
2018-06-03T00:47:03.522Z,8.25
2018-06-03T00:47:34.713Z,5.87
2018-06-03T00:48:05.933Z,5.30
2018-06-03T00:48:37.110Z,8.43
2018-06-03T00:49:08.280Z,5.60
2018-06-03T00:49:39.506Z,7.70
2018-06-03T00:50:10.688Z,5.72
2018-06-03T00:50:41.853Z,6.72
2018-06-03T00:51:13.073Z,5.60
2018-06-03T00:51:44.250Z,7.50
2018-06-03T00:52:15.417Z,7.97
2018-06-03T00:52:46.629Z,4.85
2018-06-03T00:53:17.930Z,4.20
2018-06-03T00:53:49.106Z,7.65
2018-06-03T00:54:20.325Z,7.05
2018-06-03T00:54:51.558Z,6.78
2018-06-03T00:55:22.736Z,4.17
2018-06-03T00:55:53.905Z,6.47
2018-06-03T00:56:25.073Z,4.47
2018-06-03T00:56:56.246Z,5.25
2018-06-03T00:57:27.409Z,8.30
2018-06-03T00:57:58.669Z,6.62
2018-06-03T00:58:29.849Z,4.25
2018-06-03T00:59:01.017Z,6.62
2018-06-03T00:59:32.184Z,6.50
2018-06-03T01:00:03.357Z,7.72
2018-06-03T01:00:34.521Z,7.15
2018-06-03T01:01:05.692Z,5.03
2018-06-03T01:01:36.913Z,5.10
2018-06-03T01:02:08.092Z,5.72
2018-06-03T01:02:39.260Z,3.98
2018-06-03T01:03:10.525Z,7.97
2018-06-03T01:03:41.706Z,4.90
2018-06-03T01:04:12.873Z,5.53
2018-06-03T01:04:44.039Z,6.83
2018-06-03T01:05:15.218Z,4.97
2018-06-03T01:05:46.390Z,6.37
2018-06-03T01:06:17.568Z,6.83
2018-06-03T01:06:48.836Z,5.10
2018-06-03T01:07:20.009Z,5.33
2018-06-03T01:07:51.241Z,7.12
2018-06-03T01:08:22.425Z,7.75
2018-06-03T01:08:53.591Z,6.85
2018-06-03T01:09:24.762Z,7.00
2018-06-03T01:09:55.938Z,5.58
2018-06-03T01:10:27.104Z,6.65
2018-06-03T01:10:58.277Z,5.20
2018-06-03T01:11:29.445Z,8.15
2018-06-03T01:12:00.698Z,5.85
2018-06-03T01:12:31.882Z,4.78
2018-06-03T01:13:03.053Z,5.67
2018-06-03T01:13:34.265Z,6.15
2018-06-03T01:14:05.453Z,6.58
2018-06-03T01:14:36.623Z,10.10
2018-06-03T01:15:07.847Z,7.28
2018-06-03T01:15:39.018Z,4.53
2018-06-03T01:16:10.246Z,5.35
2018-06-03T01:16:41.420Z,5.08
2018-06-03T01:17:12.590Z,4.58
2018-06-03T01:17:43.761Z,4.58
2018-06-03T01:18:14.930Z,7.85
2018-06-03T01:18:46.097Z,5.05
2018-06-03T01:19:17.272Z,7.50
2018-06-03T01:19:48.489Z,8.48
2018-06-03T01:20:19.665Z,8.70
2018-06-03T01:20:50.848Z,7.37
2018-06-03T01:21:22.065Z,6.87
2018-06-03T01:21:53.254Z,6.70
2018-06-03T01:22:24.437Z,7.97
2018-06-03T01:22:55.604Z,5.78
2018-06-03T01:23:26.842Z,5.70
2018-06-03T01:23:58.080Z,5.03
2018-06-03T01:24:29.263Z,5.05
2018-06-03T01:25:00.428Z,5.60
2018-06-03T01:25:31.613Z,7.58
2018-06-03T01:26:02.785Z,8.55
2018-06-03T01:26:34.001Z,6.78
2018-06-03T01:27:05.181Z,7.80
2018-06-03T01:27:36.345Z,7.92
2018-06-03T01:28:07.517Z,10.05
2018-06-03T01:28:38.685Z,8.70
2018-06-03T01:29:09.861Z,4.50
2018-06-03T01:29:41.032Z,6.08
2018-06-03T01:30:12.222Z,9.33
2018-06-03T01:30:43.445Z,5.62
2018-06-03T01:31:14.633Z,4.78
2018-06-03T01:31:45.933Z,7.95
2018-06-03T01:32:17.121Z,6.87
2018-06-03T01:32:48.655Z,8.80
2018-06-03T01:33:19.821Z,8.30
2018-06-03T01:33:50.990Z,7.95
2018-06-03T01:34:22.161Z,7.15
2018-06-03T01:34:53.340Z,4.40
2018-06-03T01:35:24.506Z,6.50
2018-06-03T01:35:55.728Z,4.90
2018-06-03T01:36:26.954Z,4.87
2018-06-03T01:36:58.177Z,6.47
2018-06-03T01:37:29.357Z,5.17
2018-06-03T01:38:00.622Z,5.62
2018-06-03T01:38:31.857Z,6.22
2018-06-03T01:39:03.040Z,6.87
2018-06-03T01:39:34.217Z,7.78
2018-06-03T01:40:05.380Z,7.47
2018-06-03T01:40:36.551Z,6.47
2018-06-03T01:41:07.721Z,5.03
2018-06-03T01:41:38.895Z,7.58
2018-06-03T01:42:10.064Z,7.40
2018-06-03T01:42:41.277Z,6.17
2018-06-03T01:43:12.553Z,5.67
2018-06-03T01:43:43.792Z,5.25
2018-06-03T01:44:14.976Z,6.35
2018-06-03T01:44:46.198Z,7.65
2018-06-03T01:45:17.372Z,5.78
2018-06-03T01:45:48.542Z,8.03
2018-06-03T01:46:19.716Z,5.78
2018-06-03T01:46:50.881Z,4.85
2018-06-03T01:47:22.049Z,6.72
2018-06-03T01:47:53.212Z,4.42
2018-06-03T01:48:24.467Z,4.53
2018-06-03T01:48:55.641Z,8.18
2018-06-03T01:49:26.866Z,6.28
2018-06-03T01:49:58.041Z,5.60
2018-06-03T01:50:29.255Z,7.28
2018-06-03T01:51:00.478Z,8.20
2018-06-03T01:51:31.648Z,4.65
2018-06-03T01:52:02.813Z,5.37
2018-06-03T01:52:33.977Z,7.65
2018-06-03T01:53:05.150Z,6.30
2018-06-03T01:53:36.312Z,8.85
2018-06-03T01:54:07.481Z,6.45
2018-06-03T01:54:38.737Z,5.08
2018-06-03T01:55:09.918Z,7.58
2018-06-03T01:55:41.145Z,8.13
2018-06-03T01:56:12.410Z,4.60
2018-06-03T01:56:43.634Z,6.35
2018-06-03T01:57:14.812Z,6.97
2018-06-03T01:57:45.977Z,4.42
2018-06-03T01:58:17.153Z,5.62
2018-06-03T01:58:48.375Z,5.65
2018-06-03T01:59:20.310Z,6.30
2018-06-03T01:59:51.541Z,5.30
2018-06-03T02:00:22.726Z,6.12
2018-06-03T02:00:53.895Z,7.90
2018-06-03T02:01:25.103Z,6.97
2018-06-03T02:01:56.330Z,7.62
2018-06-03T02:02:27.521Z,5.92
2018-06-03T02:02:58.745Z,5.30
2018-06-03T02:03:29.912Z,9.53
2018-06-03T02:04:01.128Z,5.22
2018-06-03T02:04:32.393Z,4.72
2018-06-03T02:05:03.626Z,7.05
2018-06-03T02:05:34.858Z,6.72
2018-06-03T02:06:06.069Z,5.12
2018-06-03T02:06:37.237Z,4.08
2018-06-03T02:07:08.407Z,6.55
2018-06-03T02:07:39.585Z,6.28
2018-06-03T02:08:10.806Z,6.47
2018-06-03T02:08:42.029Z,5.60
2018-06-03T02:09:13.206Z,7.75
2018-06-03T02:09:44.373Z,6.25
2018-06-03T02:10:15.538Z,5.72
2018-06-03T02:10:46.761Z,6.55
2018-06-03T02:11:17.932Z,7.72
2018-06-03T02:11:49.189Z,4.90
2018-06-03T02:12:20.420Z,6.40
2018-06-03T02:12:51.601Z,7.95
2018-06-03T02:13:22.761Z,6.42
2018-06-03T02:13:53.928Z,7.30
2018-06-03T02:14:25.145Z,6.28
2018-06-03T02:14:56.321Z,4.90
2018-06-03T02:15:27.545Z,6.92
2018-06-03T02:15:58.717Z,7.72
2018-06-03T02:16:29.881Z,8.68
2018-06-03T02:17:01.046Z,7.37
2018-06-03T02:17:32.216Z,4.95
2018-06-03T02:18:03.381Z,5.37
2018-06-03T02:18:34.545Z,5.72
2018-06-03T02:19:05.708Z,5.40
2018-06-03T02:19:36.936Z,3.85
2018-06-03T02:20:08.235Z,9.35
2018-06-03T02:20:39.461Z,5.58
2018-06-03T02:21:10.691Z,8.05
2018-06-03T02:21:41.923Z,5.45
2018-06-03T02:22:13.163Z,8.03
2018-06-03T02:22:44.391Z,7.15
2018-06-03T02:23:15.579Z,6.40
2018-06-03T02:23:46.745Z,7.28
2018-06-03T02:24:17.912Z,7.87
2018-06-03T02:24:49.081Z,5.58
2018-06-03T02:25:20.276Z,8.38
2018-06-03T02:25:51.444Z,6.60
2018-06-03T02:26:22.674Z,5.65
2018-06-03T02:26:53.860Z,6.83
2018-06-03T02:27:25.087Z,6.00
2018-06-03T02:27:56.269Z,4.97
2018-06-03T02:28:27.442Z,5.37
2018-06-03T02:28:58.654Z,7.72
2018-06-03T02:29:29.816Z,7.25
2018-06-03T02:30:01.038Z,3.75
2018-06-03T02:30:32.285Z,6.53
2018-06-03T02:31:03.461Z,5.55
2018-06-03T02:31:34.683Z,5.50
2018-06-03T02:32:05.861Z,7.70
2018-06-03T02:32:37.118Z,5.83
2018-06-03T02:33:08.288Z,7.17
2018-06-03T02:33:39.518Z,5.30
2018-06-03T02:34:10.742Z,5.35
2018-06-03T02:34:41.912Z,4.67
2018-06-03T02:35:13.094Z,5.10
2018-06-03T02:35:44.266Z,6.03
2018-06-03T02:36:15.441Z,6.50
2018-06-03T02:36:46.704Z,7.35
2018-06-03T02:37:17.951Z,8.38
2018-06-03T02:37:49.137Z,5.62
2018-06-03T02:38:20.354Z,8.78
2018-06-03T02:38:51.538Z,4.85
2018-06-03T02:39:22.710Z,7.55
2018-06-03T02:39:53.925Z,5.03
2018-06-03T02:40:25.139Z,4.17
2018-06-03T02:40:56.310Z,9.25
2018-06-03T02:41:27.533Z,5.45
2018-06-03T02:41:58.718Z,9.23
2018-06-03T02:42:29.948Z,3.98
2018-06-03T02:43:01.169Z,7.30
2018-06-03T02:43:32.397Z,6.20
2018-06-03T02:44:03.621Z,10.30
2018-06-03T02:44:34.841Z,7.47
2018-06-03T02:45:06.078Z,6.20
2018-06-03T02:45:37.258Z,8.60
2018-06-03T02:46:08.446Z,8.93
2018-06-03T02:46:39.673Z,6.00
2018-06-03T02:47:10.909Z,7.75
2018-06-03T02:47:42.085Z,6.78
2018-06-03T02:48:13.350Z,5.05
2018-06-03T02:48:44.520Z,4.78
2018-06-03T02:49:15.741Z,7.42
2018-06-03T02:49:46.928Z,7.83
2018-06-03T02:50:18.099Z,6.05
2018-06-03T02:50:49.370Z,6.72
2018-06-03T02:51:20.547Z,5.30
2018-06-03T02:51:51.767Z,8.58
2018-06-03T02:52:22.996Z,6.40
2018-06-03T02:52:54.179Z,7.37
2018-06-03T02:53:25.353Z,6.60
2018-06-03T02:53:56.586Z,5.65
2018-06-03T02:54:27.775Z,6.70
2018-06-03T02:54:59.000Z,5.90
2018-06-03T02:55:30.192Z,7.92
2018-06-03T02:56:01.458Z,6.67
2018-06-03T02:56:32.700Z,8.83
2018-06-03T02:57:03.998Z,7.42
2018-06-03T02:57:35.180Z,6.70
2018-06-03T02:58:06.349Z,6.33
2018-06-03T02:58:37.585Z,6.97
2018-06-03T02:59:08.759Z,6.92
2018-06-03T02:59:39.924Z,7.35
2018-06-03T03:00:11.096Z,6.20
2018-06-03T03:00:42.318Z,6.35
2018-06-03T03:01:13.520Z,6.28
2018-06-03T03:01:44.738Z,8.70
2018-06-03T03:02:15.918Z,7.45
2018-06-03T03:02:47.082Z,5.37
2018-06-03T03:03:18.255Z,5.47
2018-06-03T03:03:49.474Z,7.08
2018-06-03T03:04:20.662Z,5.95
2018-06-03T03:04:51.833Z,5.45
2018-06-03T03:05:23.056Z,8.53
2018-06-03T03:05:54.350Z,8.48
2018-06-03T03:06:25.536Z,8.88
2018-06-03T03:06:56.703Z,4.95
2018-06-03T03:07:27.877Z,4.85
2018-06-03T03:07:59.045Z,8.30
2018-06-03T03:08:30.208Z,7.35
2018-06-03T03:09:01.439Z,6.47
2018-06-03T03:09:32.640Z,11.28
2018-06-03T03:10:03.812Z,7.45
2018-06-03T03:10:34.988Z,6.20
2018-06-03T03:11:06.210Z,8.38
2018-06-03T03:11:37.377Z,8.65
2018-06-03T03:12:08.545Z,7.20
2018-06-03T03:12:39.773Z,7.92
2018-06-03T03:13:10.950Z,5.47
2018-06-03T03:13:42.173Z,6.80
2018-06-03T03:14:13.402Z,6.60
2018-06-03T03:14:44.586Z,5.25
2018-06-03T03:15:15.813Z,7.12
2018-06-03T03:15:47.050Z,9.00
2018-06-03T03:16:18.225Z,7.20
2018-06-03T03:16:49.398Z,9.35
2018-06-03T03:17:20.617Z,8.18
2018-06-03T03:17:51.798Z,7.78
2018-06-03T03:18:23.013Z,6.45
2018-06-03T03:18:54.180Z,6.00
2018-06-03T03:19:25.403Z,7.35
2018-06-03T03:19:56.580Z,7.03
2018-06-03T03:20:27.793Z,9.75
2018-06-03T03:20:58.983Z,9.55
2018-06-03T03:21:30.203Z,5.85
2018-06-03T03:22:01.434Z,6.92
2018-06-03T03:22:32.662Z,6.05
2018-06-03T03:23:03.837Z,7.50
2018-06-03T03:23:35.095Z,10.00
2018-06-03T03:24:06.267Z,7.35
2018-06-03T03:24:37.490Z,7.55
2018-06-03T03:25:08.725Z,6.47
2018-06-03T03:25:39.947Z,6.67
2018-06-03T03:26:11.130Z,7.03
2018-06-03T03:26:42.305Z,8.63
2018-06-03T03:27:13.469Z,7.17
2018-06-03T03:27:44.685Z,10.28
2018-06-03T03:28:15.861Z,8.50
2018-06-03T03:28:47.093Z,4.92
2018-06-03T03:29:18.277Z,6.42
2018-06-03T03:29:49.505Z,6.70
2018-06-03T03:30:20.684Z,5.60
2018-06-03T03:30:51.907Z,6.33
2018-06-03T03:31:23.126Z,5.87
2018-06-03T03:31:54.321Z,5.67
2018-06-03T03:32:25.497Z,9.00
2018-06-03T03:32:56.735Z,4.20
2018-06-03T03:33:27.921Z,5.53
2018-06-03T03:33:59.099Z,7.72
2018-06-03T03:34:30.329Z,8.88
2018-06-03T03:35:01.511Z,7.80
2018-06-03T03:35:32.749Z,7.28
2018-06-03T03:36:03.983Z,8.25
2018-06-03T03:36:35.161Z,5.45
2018-06-03T03:37:06.430Z,8.23
2018-06-03T03:37:37.687Z,10.48
2018-06-03T03:38:08.885Z,6.30
2018-06-03T03:38:40.055Z,8.78
2018-06-03T03:39:11.329Z,9.80
2018-06-03T03:39:42.505Z,8.83
2018-06-03T03:40:13.692Z,7.20
2018-06-03T03:40:44.872Z,7.42
2018-06-03T03:41:16.050Z,5.35
2018-06-03T03:41:47.225Z,5.40
2018-06-03T03:42:18.445Z,7.92
2018-06-03T03:42:49.621Z,9.13
2018-06-03T03:43:20.793Z,8.58
2018-06-03T03:43:51.972Z,7.30
2018-06-03T03:44:23.198Z,7.83
2018-06-03T03:44:54.384Z,6.40
2018-06-03T03:45:25.565Z,6.30
2018-06-03T03:45:56.797Z,7.57
2018-06-03T03:46:27.988Z,7.08
2018-06-03T03:46:59.255Z,5.07
2018-06-03T03:47:30.437Z,5.87
2018-06-03T03:48:01.608Z,5.70
2018-06-03T03:48:32.781Z,7.70
2018-06-03T03:49:04.006Z,8.50
2018-06-03T03:49:35.239Z,6.67
2018-06-03T03:50:06.421Z,6.73
2018-06-03T03:50:37.590Z,9.77
2018-06-03T03:51:08.756Z,5.27
2018-06-03T03:51:39.931Z,7.13
2018-06-03T03:52:11.181Z,9.43
2018-06-03T03:52:42.369Z,7.47
2018-06-03T03:53:13.533Z,7.40
2018-06-03T03:53:44.739Z,5.30
2018-06-03T03:54:15.917Z,5.83
2018-06-03T03:54:47.130Z,6.57
2018-06-03T03:55:18.306Z,6.77
2018-06-03T03:55:49.538Z,6.97
2018-06-03T03:56:20.717Z,7.30
2018-06-03T03:56:51.926Z,7.10
2018-06-03T03:57:23.097Z,11.40
2018-06-03T03:57:54.314Z,5.60
2018-06-03T03:58:25.496Z,6.23
2018-06-03T03:58:56.717Z,8.33
2018-06-03T03:59:27.933Z,6.57
2018-06-03T03:59:59.163Z,9.63
2018-06-03T04:00:30.347Z,5.37
2018-06-03T04:01:01.515Z,7.70
2018-06-03T04:01:32.688Z,9.50
2018-06-03T04:02:03.876Z,7.30
2018-06-03T04:02:35.056Z,6.80
2018-06-03T04:03:06.234Z,6.97
2018-06-03T04:03:37.451Z,6.77
2018-06-03T04:04:08.666Z,8.33
2018-06-03T04:04:39.845Z,7.93
2018-06-03T04:05:11.020Z,6.40
2018-06-03T04:05:42.190Z,5.30
2018-06-03T04:06:13.414Z,9.17
2018-06-03T04:06:44.601Z,8.90
2018-06-03T04:07:15.868Z,6.37
2018-06-03T04:07:47.091Z,6.90
2018-06-03T04:08:18.290Z,5.73
2018-06-03T04:08:49.518Z,7.50
2018-06-03T04:09:20.692Z,9.00
2018-06-03T04:09:51.945Z,7.43
2018-06-03T04:10:23.131Z,9.67
2018-06-03T04:10:54.302Z,8.13
2018-06-03T04:11:25.480Z,7.73
2018-06-03T04:11:56.697Z,8.93
2018-06-03T04:12:27.879Z,8.70
2018-06-03T04:12:59.049Z,9.07
2018-06-03T04:13:30.230Z,9.83
2018-06-03T04:14:01.460Z,11.53
2018-06-03T04:14:32.628Z,15.07
2018-06-03T04:15:03.805Z,11.70
2018-06-03T04:15:35.027Z,11.07
2018-06-03T04:16:06.211Z,12.37
2018-06-03T04:16:37.435Z,9.43
2018-06-03T04:17:08.686Z,11.17
2018-06-03T04:17:39.868Z,12.40
2018-06-03T04:18:11.091Z,17.83
2018-06-03T04:18:42.277Z,12.33
2018-06-03T04:19:13.502Z,14.87
2018-06-03T04:19:44.721Z,15.03
2018-06-03T04:20:15.898Z,10.93
2018-06-03T04:20:47.070Z,17.00
2018-06-03T04:21:18.245Z,16.03
2018-06-03T04:21:49.473Z,18.77
2018-06-03T04:22:20.673Z,12.63
2018-06-03T04:22:51.846Z,12.57
2018-06-03T04:23:23.065Z,12.00
2018-06-03T04:23:54.240Z,12.60
2018-06-03T04:24:25.444Z,12.40
2018-06-03T04:24:56.613Z,14.13
2018-06-03T04:25:27.788Z,13.67
2018-06-03T04:25:59.018Z,13.40
2018-06-03T04:26:30.196Z,12.80
2018-06-03T04:27:01.462Z,18.07
2018-06-03T04:27:32.677Z,12.30
2018-06-03T04:28:03.876Z,14.03
2018-06-03T04:28:35.043Z,14.67
2018-06-03T04:29:06.212Z,12.37
2018-06-03T04:29:37.393Z,14.87
2018-06-03T04:30:08.578Z,14.77
2018-06-03T04:30:39.753Z,15.53
2018-06-03T04:31:10.985Z,14.87
2018-06-03T04:31:42.172Z,15.23
2018-06-03T04:32:13.441Z,13.33
2018-06-03T04:32:44.638Z,13.60
2018-06-03T04:33:15.810Z,16.43
2018-06-03T04:33:47.034Z,12.17
2018-06-03T04:34:18.217Z,11.33
2018-06-03T04:34:49.381Z,14.20
2018-06-03T04:35:20.601Z,13.00
2018-06-03T04:35:51.786Z,13.97
2018-06-03T04:36:22.957Z,11.30
2018-06-03T04:36:54.189Z,13.60
2018-06-03T04:37:25.421Z,13.93
2018-06-03T04:37:56.640Z,13.77
2018-06-03T04:38:27.810Z,10.40
2018-06-03T04:38:59.030Z,13.97
2018-06-03T04:39:30.217Z,15.10
2018-06-03T04:40:01.442Z,16.10
2018-06-03T04:40:32.620Z,12.03
2018-06-03T04:41:03.798Z,14.73
2018-06-03T04:41:34.966Z,12.50
2018-06-03T04:42:06.142Z,14.30
2018-06-03T04:42:37.365Z,13.47
2018-06-03T04:43:08.589Z,12.23
2018-06-03T04:43:39.764Z,14.73
2018-06-03T04:44:10.938Z,11.93
2018-06-03T04:44:42.164Z,11.97
2018-06-03T04:45:13.350Z,12.73
2018-06-03T04:45:44.517Z,13.47
2018-06-03T04:46:15.769Z,13.33
2018-06-03T04:46:46.957Z,13.73
2018-06-03T04:47:18.122Z,11.53
2018-06-03T04:47:49.328Z,13.50
2018-06-03T04:48:20.502Z,14.77
2018-06-03T04:48:51.720Z,14.27
2018-06-03T04:49:22.902Z,10.83
2018-06-03T04:49:54.081Z,11.20
2018-06-03T04:50:25.306Z,13.17
2018-06-03T04:50:56.534Z,15.27
2018-06-03T04:51:27.720Z,17.07
2018-06-03T04:51:58.900Z,14.10
2018-06-03T04:52:30.117Z,15.53
2018-06-03T04:53:01.345Z,12.80
2018-06-03T04:53:32.573Z,14.90
2018-06-03T04:54:03.854Z,14.80
2018-06-03T04:54:35.034Z,16.30
2018-06-03T04:55:06.211Z,12.97
2018-06-03T04:55:37.440Z,15.50
2018-06-03T04:56:08.673Z,12.83
2018-06-03T04:56:39.861Z,13.50
2018-06-03T04:57:11.101Z,12.60
2018-06-03T04:57:42.371Z,17.37
2018-06-03T04:58:13.549Z,15.40
2018-06-03T04:58:44.844Z,17.03
2018-06-03T04:59:16.037Z,16.60
2018-06-03T04:59:47.257Z,14.57
2018-06-03T05:00:18.440Z,12.87
2018-06-03T05:00:49.670Z,14.57
2018-06-03T05:01:20.852Z,14.97
2018-06-03T05:01:52.020Z,13.03
2018-06-03T05:02:23.188Z,15.83
2018-06-03T05:02:54.357Z,14.77
2018-06-03T05:03:25.538Z,16.30
2018-06-03T05:03:56.839Z,12.57
2018-06-03T05:04:28.118Z,14.37
2018-06-03T05:04:59.354Z,14.03
2018-06-03T05:05:30.586Z,15.27
2018-06-03T05:06:01.780Z,17.03
2018-06-03T05:06:32.956Z,13.07
2018-06-03T05:07:04.129Z,11.90
2018-06-03T05:07:35.311Z,15.40
2018-06-03T05:08:06.511Z,17.07
2018-06-03T05:08:37.738Z,13.67
2018-06-03T05:09:08.973Z,19.10
2018-06-03T05:09:40.209Z,13.63
2018-06-03T05:10:11.445Z,15.07
2018-06-03T05:10:42.625Z,15.97
2018-06-03T05:11:13.800Z,12.93
2018-06-03T05:11:45.039Z,13.03
2018-06-03T05:12:16.277Z,11.37
2018-06-03T05:12:47.646Z,12.00
2018-06-03T05:13:18.832Z,12.07
2018-06-03T05:13:50.015Z,14.77
2018-06-03T05:14:21.200Z,11.90
2018-06-03T05:14:52.395Z,12.03
2018-06-03T05:15:23.616Z,13.37
2018-06-03T05:15:54.850Z,14.93
2018-06-03T05:16:26.081Z,15.23
2018-06-03T05:16:57.269Z,13.87
2018-06-03T05:17:28.498Z,13.77
2018-06-03T05:17:59.691Z,13.17
2018-06-03T05:18:30.922Z,16.53
2018-06-03T05:19:02.113Z,13.60
2018-06-03T05:19:33.285Z,12.70
2018-06-03T05:20:04.534Z,12.00
2018-06-03T05:20:35.780Z,12.67
2018-06-03T05:21:06.968Z,14.03
2018-06-03T05:21:38.143Z,11.10
2018-06-03T05:22:09.316Z,11.50
2018-06-03T05:22:40.493Z,12.10
2018-06-03T05:23:12.289Z,11.83
2018-06-03T05:23:43.472Z,13.30
2018-06-03T05:24:14.697Z,15.97
2018-06-03T05:24:45.892Z,15.47
2018-06-03T05:25:17.116Z,14.43
2018-06-03T05:25:48.305Z,13.97
2018-06-03T05:26:19.582Z,10.90
2018-06-03T05:26:50.828Z,13.37
2018-06-03T05:27:22.033Z,13.07
2018-06-03T05:27:53.298Z,8.53
2018-06-03T05:28:24.484Z,8.43
2018-06-03T05:28:55.665Z,10.37
2018-06-03T05:29:26.845Z,10.10
2018-06-03T05:29:58.076Z,12.83
2018-06-03T05:30:29.256Z,12.70
2018-06-03T05:31:00.489Z,11.30
2018-06-03T05:31:31.791Z,10.90
2018-06-03T05:32:03.029Z,11.87
2018-06-03T05:32:34.227Z,10.03
2018-06-03T05:33:05.459Z,10.47
2018-06-03T05:33:36.657Z,9.73
2018-06-03T05:34:07.836Z,12.33
2018-06-03T05:34:39.013Z,7.40
2018-06-03T05:35:10.248Z,10.80
2018-06-03T05:35:41.433Z,8.83
2018-06-03T05:36:12.657Z,11.17
2018-06-03T05:36:43.939Z,11.40
2018-06-03T05:37:15.120Z,6.83
2018-06-03T05:37:46.296Z,9.50
2018-06-03T05:38:17.522Z,8.53
2018-06-03T05:38:48.770Z,8.60
2018-06-03T05:39:19.960Z,9.37
2018-06-03T05:39:51.189Z,10.60
2018-06-03T05:40:22.369Z,10.83
2018-06-03T05:40:53.581Z,8.93
2018-06-03T05:41:24.761Z,10.63
2018-06-03T05:41:55.939Z,10.30
2018-06-03T05:42:27.144Z,10.83
2018-06-03T05:42:58.328Z,8.73
2018-06-03T05:43:29.510Z,11.13
2018-06-03T05:44:00.738Z,10.17
2018-06-03T05:44:31.956Z,10.33
2018-06-03T05:45:03.182Z,9.47
2018-06-03T05:45:34.429Z,12.33
2018-06-03T05:46:05.617Z,9.37
2018-06-03T05:46:36.873Z,8.57
2018-06-03T05:47:08.053Z,9.13
2018-06-03T05:47:39.235Z,6.90
2018-06-03T05:48:10.449Z,10.07
2018-06-03T05:48:41.677Z,10.43
2018-06-03T05:49:12.866Z,8.67
2018-06-03T05:49:44.100Z,6.60
2018-06-03T05:50:15.301Z,7.00
2018-06-03T05:50:46.479Z,8.20
2018-06-03T05:51:17.657Z,9.67
2018-06-03T05:51:48.838Z,7.63
2018-06-03T05:52:20.023Z,11.67
2018-06-03T05:52:51.198Z,7.77
2018-06-03T05:53:22.466Z,6.73
2018-06-03T05:53:53.661Z,6.80
2018-06-03T05:54:24.840Z,10.37
2018-06-03T05:54:56.070Z,7.03
2018-06-03T05:55:27.267Z,8.67
2018-06-03T05:55:58.448Z,6.43
2018-06-03T05:56:29.681Z,5.80
2018-06-03T05:57:00.860Z,7.53
2018-06-03T05:57:32.033Z,7.83
2018-06-03T05:58:03.208Z,8.57
2018-06-03T05:58:34.429Z,7.67
2018-06-03T05:59:05.615Z,7.77
2018-06-03T05:59:36.845Z,7.00
2018-06-03T06:00:08.028Z,6.60
2018-06-03T06:00:39.205Z,8.07
2018-06-03T06:01:10.378Z,7.20
2018-06-03T06:01:41.549Z,8.57
2018-06-03T06:02:12.787Z,7.03
2018-06-03T06:02:44.039Z,6.30
2018-06-03T06:03:15.232Z,7.83
2018-06-03T06:03:46.450Z,8.17
2018-06-03T06:04:17.628Z,7.33
2018-06-03T06:04:48.857Z,8.43
2018-06-03T06:05:20.098Z,8.93
2018-06-03T06:05:51.293Z,6.00
2018-06-03T06:06:22.508Z,6.60
2018-06-03T06:06:53.734Z,6.00
2018-06-03T06:07:24.917Z,5.43
2018-06-03T06:07:56.099Z,7.07
2018-06-03T06:08:27.365Z,6.73
2018-06-03T06:08:58.601Z,8.80
2018-06-03T06:09:29.762Z,8.23
2018-06-03T06:10:00.962Z,9.90
2018-06-03T06:10:32.140Z,6.73
2018-06-03T06:11:03.333Z,8.20
2018-06-03T06:11:34.560Z,8.87
2018-06-03T06:12:05.752Z,7.50
2018-06-03T06:12:36.932Z,9.13
2018-06-03T06:13:08.101Z,8.43
2018-06-03T06:13:39.277Z,7.57
2018-06-03T06:14:10.444Z,5.57
2018-06-03T06:14:41.626Z,7.53
2018-06-03T06:15:12.853Z,9.20
2018-06-03T06:15:44.081Z,7.27
2018-06-03T06:16:15.317Z,9.47
2018-06-03T06:16:46.493Z,6.70
2018-06-03T06:17:17.676Z,6.33
2018-06-03T06:17:48.847Z,9.00
2018-06-03T06:18:20.029Z,10.87
2018-06-03T06:18:51.197Z,6.03
2018-06-03T06:19:22.422Z,8.60
2018-06-03T06:19:53.613Z,6.90
2018-06-03T06:20:24.836Z,6.73
2018-06-03T06:20:56.069Z,8.93
2018-06-03T06:21:27.252Z,6.50
2018-06-03T06:21:58.481Z,7.40
2018-06-03T06:22:29.674Z,9.03
2018-06-03T06:23:00.905Z,7.73
2018-06-03T06:23:32.088Z,7.57
2018-06-03T06:24:03.314Z,7.07
2018-06-03T06:24:34.501Z,6.50
2018-06-03T06:25:05.725Z,9.47
2018-06-03T06:25:36.945Z,5.93
2018-06-03T06:26:08.125Z,6.73
2018-06-03T06:26:39.390Z,5.53
2018-06-03T06:27:10.638Z,10.40
2018-06-03T06:27:41.865Z,6.10
2018-06-03T06:28:13.056Z,5.03
2018-06-03T06:28:44.236Z,8.70
2018-06-03T06:29:15.404Z,5.97
2018-06-03T06:29:46.581Z,7.33
2018-06-03T06:30:17.813Z,7.53
2018-06-03T06:30:49.005Z,5.50
2018-06-03T06:31:20.272Z,5.70
2018-06-03T06:31:51.456Z,6.00
2018-06-03T06:32:22.637Z,7.73
2018-06-03T06:32:53.868Z,5.27
2018-06-03T06:33:25.037Z,5.77
2018-06-03T06:33:56.227Z,10.07
2018-06-03T06:34:27.453Z,6.23
2018-06-03T06:34:58.633Z,7.37
2018-06-03T06:35:29.805Z,7.50
2018-06-03T06:36:01.038Z,6.23
2018-06-03T06:36:32.227Z,5.90
2018-06-03T06:37:03.402Z,6.90
2018-06-03T06:37:34.636Z,9.07
2018-06-03T06:38:06.021Z,10.73
2018-06-03T06:38:37.224Z,8.50
2018-06-03T06:39:08.453Z,5.73
2018-06-03T06:39:39.642Z,7.10
2018-06-03T06:40:10.865Z,6.47
2018-06-03T06:40:42.106Z,7.77
2018-06-03T06:41:13.285Z,7.50
2018-06-03T06:41:44.500Z,5.10
2018-06-03T06:42:15.674Z,6.47
2018-06-03T06:42:46.845Z,10.10
2018-06-03T06:43:18.066Z,7.00
2018-06-03T06:43:49.289Z,9.73
2018-06-03T06:44:20.466Z,5.20
2018-06-03T06:44:51.638Z,4.77
2018-06-03T06:45:22.831Z,7.73
2018-06-03T06:45:54.062Z,6.73
2018-06-03T06:46:25.253Z,7.03
2018-06-03T06:46:56.429Z,5.50
2018-06-03T06:47:27.604Z,6.47
2018-06-03T06:47:58.788Z,8.73
2018-06-03T06:48:30.052Z,7.90
2018-06-03T06:49:01.294Z,6.93
2018-06-03T06:49:32.579Z,7.33
2018-06-03T06:50:03.783Z,6.87
2018-06-03T06:50:34.984Z,13.90
2018-06-03T06:51:06.174Z,13.63
2018-06-03T06:51:37.406Z,7.93
2018-06-03T06:52:08.593Z,7.20